Terminal Aerodrome Forecast
Issued by NWS Wilmington, OH

Home | Current Version | Previous Version | Text Only | Print | Product List | Glossary On
Versions: 1 2 3 4 5 6 7 8 9 10 11 12 13 14 15
099
FTUS41 KILN 240536
TAFILN
TAF
KILN 240536Z 2406/2506 18009KT P6SM VCSH SCT060 BKN130
      WS020/21035KT
     FM240800 19011G21KT P6SM SCT040 BKN120 WS020/21045KT
     FM241500 21015G27KT P6SM BKN040
     FM242200 21013G18KT P6SM BKN070
     FM250000 20009KT P6SM BKN090=

USA.gov is the U.S. government's official web portal to all federal, state and local government web resources and services.